AirNav   Air Wisconsin Up To $57,000 Bonus
 
 1041 users online  

GA18 Big Creek Flying Ranch Airport
Clayton, Georgia, USA

GOING TO CLAYTON?


FAA INFORMATION EFFECTIVE 26 JANUARY 2023

Location

FAA Identifier: GA18
Lat/Long: 34-49-58.3340N 083-24-34.5830W
34-49.972233N 083-24.576383W
34.8328706,-83.4096064
(estimated)
Elevation: 1650 ft. / 503 m (estimated)
Variation: 03W (1985)
From city: 4 miles SE of CLAYTON, GA
Time zone: UTC -5 (UTC -4 during Daylight Saving Time)
Zip code: 30525

Airport Operations

Airport use: Private use. Permission required prior to landing
Activation date: 11/1988
Control tower: no
ARTCC: ATLANTA CENTER
FSS: MACON FLIGHT SERVICE STATION
Attendance: UNATNDD
Wind indicator: yes
Segmented circle: no

Airport Communications

WX AWOS-3 at TOC (15 nm S): 119.625 (706-297-7473)

Nearby radio navigation aids

VOR radial/distance  VOR name  Freq  Var
ODFr326/9.9FOOTHILLS VOR/DME113.4000E
HRSr105/25.8HARRIS VORTAC109.8000E
ELWr309/39.6ELECTRIC CITY VORTAC108.6000E

Airport Services

Runway Information

Runway 9/27

Dimensions: 2800 x 60 ft. / 853 x 18 m
Surface: turf
RUNWAY 9  RUNWAY 27
Traffic pattern: leftleft
Displaced threshold: 100 ft.no
Obstructions: 5 ft. fence40 ft. pline, marked, 600 ft. from runway

Airport Ownership and Management from official FAA records

Ownership: Privately-owned
Owner: DELTA BRANO ENTERPRISES INC
344 FLYING RANCH DR
CLAYTON, GA 30525
Phone 770-596-3689
Manager: DANNY BENSON
344 FLYING RANCH DR
CLAYTON, GA 30525
Phone 770-596-3689

Airport Operational Statistics

Aircraft based on the field: 1
Single engine airplanes: 1
    

Additional Remarks

RWY 27 FOR LDG ONLY;RWY 09 FOR DEP ONLY-STRAIGHT OUT AND DOWN THE VALLEY
FOR CD CTC ATLANTA ARTCC AT 770-210-7692.

Instrument Procedures

There are no published instrument procedures at GA18.

Some nearby airports with instrument procedures:

KTOC - Toccoa Airport-RG Letourneau Field (15 nm S)
KAJR - Habersham County Airport (21 nm S)
1A5 - Macon County Airport (23 nm N)
KCEU - Oconee County Regional Airport (28 nm E)
KDZJ - Blairsville Airport (29 nm W)
 
Loc | Ops | Rwys | IFR | FBO | Links
Com | Nav | Svcs | Stats | Notes
Area around GA18 (Big Creek Flying Ranch Airport)
 
Road maps at: MapQuest Bing Google
 
Aerial photo
No photo
 
Sectional chart

 
Airport distance calculator
Flying to Big Creek Flying Ranch Airport? Find the distance to fly.

From to GA18

Sunrise and sunset
Times for 02-Feb-2023
 Local
(UTC-5)
 Zulu
(UTC)
Morning civil twilight07:0612:06
Sunrise07:3212:32
Sunset18:0223:02
Evening civil twilight18:2923:29

Current date and time
Zulu (UTC)  03-Feb-2023 02:09:58
Local (UTC-5)  02-Feb-2023 21:09:58
 
METAR
KTOC 
15nm S 
030155Z AUTO 00000KT 10SM -RA OVC095 08/07 A3008 RMK AO2 P0003 T00820072
KAJR 
21nm S 
030155Z AUTO 32003KT 10SM RA OVC085 08/08 A3007 RMK AO2 T00800080
K1A5 
23nm N 
030155Z AUTO 00000KT 10SM DZ SCT017 BKN055 OVC080 06/05 A3015 RMK AO2 P0003 T00580051
KCEU 
28nm E 
030154Z AUTO 00000KT 9SM -RA FEW003 SCT065 OVC090 08/08 A3007 RMK AO2 SLP185 P0003 T00780078
KDZJ 
29nm W 
030155Z AUTO 00000KT 10SM -RA SCT050 BKN075 OVC095 06/05 A3013 RMK AO2 P0002 T00560049
KRHP 
30nm NW 
030155Z AUTO 00000KT 10SM -RA BKN009 BKN027 OVC035 06/05 A3012 RMK AO2 P0002 T00600053
K24A 
31nm N 
030155Z AUTO 33005KT 10SM RA SCT019 BKN060 OVC070 04/03 A3010 RMK AO2 P0001 T00370032
TAF
KAND 
40nm SE 
021740Z 0218/0318 06003KT P6SM -RA OVC006 TEMPO 0218/0222 5SM -RA BR SCT007 BKN040 FM022300 VRB02KT 3SM -RA BR OVC005 FM030800 27004KT 5SM -RA BR OVC024 PROB30 0309/0311 2SM -RA BR OVC015 FM031100 30003KT 6SM BR OVC060 FM031500 29007KT P6SM SCT090
NOTAMs
Click for the latest NOTAMs
NOTAMs are issued by the DoD/FAA and will open in a separate window not controlled by AirNav.

 

 
 

Would you like to see your business listed on this page?

 If your business provides an interesting product or service to pilots, flight crews, aircraft, or users of the Big Creek Flying Ranch Airport, you should consider listing it here.  To start the listing process, click on the button below
 
Add a business
 

Other Pages about Big Creek Flying Ranch Airport

Update a link
 
Copyright © AirNav, LLC. All rights reserved. Privacy Policy  Contact